createdAt,value
2023-01-31T00:00:27.058Z,7.14
2023-01-31T00:02:53.605Z,7.10
2023-01-31T00:05:20.546Z,7.09
2023-01-31T00:07:48.213Z,7.07
2023-01-31T00:10:14.822Z,7.20
2023-01-31T00:12:41.431Z,7.23
2023-01-31T00:15:08.228Z,7.28
2023-01-31T00:17:34.719Z,7.31
2023-01-31T00:20:01.256Z,7.26
2023-01-31T00:22:27.878Z,7.28
2023-01-31T00:24:54.439Z,7.32
2023-01-31T00:27:20.924Z,7.27
2023-01-31T00:29:47.457Z,7.22
2023-01-31T00:32:14.093Z,7.28
2023-01-31T00:34:40.654Z,7.35
2023-01-31T00:37:07.258Z,7.29
2023-01-31T00:39:33.871Z,7.44
2023-01-31T00:42:00.417Z,7.40
2023-01-31T00:44:27.043Z,7.28
2023-01-31T00:46:53.650Z,7.29
2023-01-31T00:49:20.134Z,7.26
2023-01-31T00:51:46.675Z,7.35
2023-01-31T00:54:13.317Z,7.37
2023-01-31T00:56:40.025Z,7.42
2023-01-31T00:59:08.813Z,7.46
2023-01-31T01:01:36.114Z,7.51
2023-01-31T01:04:03.292Z,7.50
2023-01-31T01:06:29.968Z,7.45
2023-01-31T01:08:57.797Z,7.38
2023-01-31T01:11:25.954Z,7.31
2023-01-31T01:13:52.867Z,7.23
2023-01-31T01:16:21.401Z,7.19
2023-01-31T01:18:49.396Z,7.07
2023-01-31T01:21:17.543Z,7.06
2023-01-31T01:23:44.083Z,6.99
2023-01-31T01:26:14.936Z,7.00
2023-01-31T01:28:41.601Z,6.95
2023-01-31T01:31:09.274Z,6.84
2023-01-31T01:33:36.807Z,6.76
2023-01-31T01:36:08.140Z,6.78
2023-01-31T01:38:36.295Z,6.76
2023-01-31T01:41:03.524Z,6.72
2023-01-31T01:43:59.582Z,6.67
2023-01-31T01:46:44.850Z,6.63
2023-01-31T01:49:19.030Z,6.66
2023-01-31T01:51:46.660Z,6.65
2023-01-31T01:54:17.961Z,6.63
2023-01-31T01:56:46.840Z,6.61
2023-01-31T01:59:19.530Z,6.60
2023-01-31T02:01:48.080Z,6.68
2023-01-31T02:04:17.940Z,6.73
2023-01-31T02:06:45.317Z,6.80
2023-01-31T02:09:26.563Z,6.87
2023-01-31T02:11:53.095Z,6.90
2023-01-31T02:14:19.802Z,6.75
2023-01-31T02:16:46.405Z,6.78
2023-01-31T02:19:19.578Z,6.71
2023-01-31T02:22:12.528Z,6.62
2023-01-31T02:24:42.137Z,6.61
2023-01-31T02:27:11.767Z,6.55
2023-01-31T02:29:41.200Z,6.56
2023-01-31T02:32:22.952Z,6.50
2023-01-31T02:35:12.635Z,6.39
2023-01-31T02:37:59.575Z,6.38
2023-01-31T02:40:29.996Z,6.36
2023-01-31T02:42:56.745Z,6.27
2023-01-31T02:45:41.075Z,6.25
2023-01-31T02:48:10.616Z,6.20
2023-01-31T02:50:40.125Z,6.14
2023-01-31T02:53:11.287Z,6.04
2023-01-31T02:56:16.996Z,5.99
2023-01-31T02:59:02.209Z,5.97
2023-01-31T03:01:31.311Z,6.05
2023-01-31T03:03:59.677Z,6.32
2023-01-31T03:06:27.192Z,6.52
2023-01-31T03:09:00.057Z,6.72
2023-01-31T03:11:35.618Z,6.86
2023-01-31T03:14:11.173Z,6.95
2023-01-31T03:17:01.984Z,7.02
2023-01-31T03:19:32.912Z,7.15
2023-01-31T03:22:08.348Z,7.13
2023-01-31T03:24:35.318Z,7.18
2023-01-31T03:27:05.364Z,7.08
2023-01-31T03:29:35.215Z,7.23
2023-01-31T03:32:07.114Z,7.13
2023-01-31T03:34:33.671Z,7.40
2023-01-31T03:37:15.608Z,7.38
2023-01-31T03:39:45.029Z,7.48
2023-01-31T03:42:28.043Z,7.53
2023-01-31T03:45:06.469Z,7.42
2023-01-31T03:47:39.055Z,7.51
2023-01-31T03:50:14.120Z,7.53
2023-01-31T03:52:48.939Z,7.51
2023-01-31T03:55:17.794Z,7.54
2023-01-31T03:57:46.524Z,7.62
2023-01-31T04:00:14.864Z,7.45
2023-01-31T04:02:42.661Z,7.51
2023-01-31T04:05:21.363Z,7.55
2023-01-31T04:07:48.222Z,7.45
2023-01-31T04:10:18.899Z,7.50
2023-01-31T04:12:46.407Z,7.59
2023-01-31T04:15:13.566Z,7.53
2023-01-31T04:17:40.257Z,7.45
2023-01-31T04:20:07.274Z,7.49
2023-01-31T04:22:34.071Z,7.40
2023-01-31T04:25:00.710Z,7.43
2023-01-31T04:27:27.372Z,7.28
2023-01-31T04:29:53.926Z,7.37
2023-01-31T04:32:20.562Z,7.32
2023-01-31T04:34:47.196Z,7.35
2023-01-31T04:37:13.776Z,7.20
2023-01-31T04:39:40.483Z,7.29
2023-01-31T04:42:07.187Z,7.28
2023-01-31T04:44:33.687Z,7.26
2023-01-31T04:47:00.345Z,7.20
2023-01-31T04:49:27.304Z,7.22
2023-01-31T04:51:53.815Z,7.22
2023-01-31T04:54:20.563Z,7.22
2023-01-31T04:56:47.185Z,7.18
2023-01-31T04:59:13.677Z,7.26
2023-01-31T05:01:42.216Z,7.27
2023-01-31T05:04:09.022Z,7.31
2023-01-31T05:06:35.515Z,7.21
2023-01-31T05:09:02.106Z,7.29
2023-01-31T05:11:29.169Z,7.29
2023-01-31T05:13:55.938Z,7.30
2023-01-31T05:16:22.520Z,7.24
2023-01-31T05:18:51.001Z,7.21
2023-01-31T05:21:17.531Z,7.25
2023-01-31T05:23:44.143Z,7.30
2023-01-31T05:26:11.002Z,7.29
2023-01-31T05:28:37.732Z,7.30
2023-01-31T05:31:06.652Z,7.27
2023-01-31T05:33:33.646Z,7.27
2023-01-31T05:36:00.696Z,7.21
2023-01-31T05:38:27.379Z,7.35
2023-01-31T05:40:53.911Z,7.27
2023-01-31T05:43:20.566Z,7.18
2023-01-31T05:45:48.327Z,7.12
2023-01-31T05:48:14.908Z,7.10
2023-01-31T05:50:41.523Z,7.18
2023-01-31T05:53:09.312Z,7.15
2023-01-31T05:55:36.007Z,7.16
2023-01-31T05:58:02.513Z,6.98
2023-01-31T06:00:29.028Z,7.07
2023-01-31T06:02:59.908Z,7.04
2023-01-31T06:05:27.097Z,7.04
2023-01-31T06:07:54.055Z,6.90
2023-01-31T06:10:21.267Z,6.82
2023-01-31T06:12:48.220Z,6.85
2023-01-31T06:15:14.751Z,6.79
2023-01-31T06:17:41.356Z,6.90
2023-01-31T06:20:08.446Z,6.78
2023-01-31T06:22:34.945Z,6.82
2023-01-31T06:25:01.472Z,6.73
2023-01-31T06:27:28.024Z,6.64
2023-01-31T06:29:54.602Z,6.64
2023-01-31T06:32:21.322Z,6.40
2023-01-31T06:34:47.833Z,6.40
2023-01-31T06:37:14.322Z,6.21
2023-01-31T06:39:40.886Z,6.19
2023-01-31T06:42:07.612Z,6.09
2023-01-31T06:44:34.234Z,6.08
2023-01-31T06:47:01.830Z,6.07
2023-01-31T06:49:28.768Z,6.07
2023-01-31T06:51:55.812Z,6.02
2023-01-31T06:54:22.408Z,5.84
2023-01-31T06:56:49.130Z,5.75
2023-01-31T06:59:15.728Z,5.79
2023-01-31T07:01:42.621Z,5.80
2023-01-31T07:04:09.341Z,5.63
2023-01-31T07:06:35.936Z,5.60
2023-01-31T07:09:02.539Z,5.53
2023-01-31T07:11:29.150Z,5.48
2023-01-31T07:13:55.819Z,5.43
2023-01-31T07:16:23.913Z,5.24
2023-01-31T07:18:52.648Z,5.11
2023-01-31T07:21:19.248Z,5.17
2023-01-31T07:23:46.550Z,5.09
2023-01-31T07:26:13.540Z,5.07
2023-01-31T07:28:40.081Z,4.96
2023-01-31T07:31:07.965Z,5.02
2023-01-31T07:33:34.524Z,4.92
2023-01-31T07:36:01.862Z,4.97
2023-01-31T07:38:28.407Z,4.95
2023-01-31T07:40:58.164Z,4.95
2023-01-31T07:43:24.713Z,5.01
2023-01-31T07:45:51.369Z,5.07
2023-01-31T07:48:23.473Z,5.14
2023-01-31T07:50:51.214Z,5.16
2023-01-31T07:53:18.160Z,5.16
2023-01-31T07:55:47.831Z,5.19
2023-01-31T07:58:15.130Z,5.18
2023-01-31T08:01:00.953Z,5.15
2023-01-31T08:03:35.026Z,5.25
2023-01-31T08:06:03.158Z,5.21
2023-01-31T08:08:29.717Z,5.28
2023-01-31T08:10:56.314Z,5.31
2023-01-31T08:13:23.173Z,5.18
2023-01-31T08:15:51.555Z,5.20
2023-01-31T08:18:18.125Z,5.30
2023-01-31T08:20:45.074Z,5.14
2023-01-31T08:23:11.657Z,5.22
2023-01-31T08:25:38.193Z,5.20
2023-01-31T08:28:04.871Z,5.20
2023-01-31T08:30:31.689Z,5.40
2023-01-31T08:32:58.340Z,5.34
2023-01-31T08:35:28.420Z,5.35
2023-01-31T08:38:03.755Z,5.30
2023-01-31T08:40:37.137Z,5.49
2023-01-31T08:43:03.689Z,5.40
2023-01-31T08:45:31.324Z,5.60
2023-01-31T08:47:59.101Z,5.92
2023-01-31T08:50:28.207Z,5.89
2023-01-31T08:52:58.775Z,5.99
2023-01-31T08:55:25.394Z,6.02
2023-01-31T08:57:59.191Z,6.19
2023-01-31T09:00:26.586Z,6.42
2023-01-31T09:02:54.236Z,6.38
2023-01-31T09:05:21.749Z,6.58
2023-01-31T09:07:48.485Z,6.52
2023-01-31T09:10:15.068Z,6.29
2023-01-31T09:12:41.629Z,6.43
2023-01-31T09:15:08.376Z,6.32
2023-01-31T09:17:34.931Z,5.96
2023-01-31T09:20:06.805Z,5.90
2023-01-31T09:22:34.656Z,5.81
2023-01-31T09:25:01.945Z,5.88
2023-01-31T09:27:29.658Z,5.74
2023-01-31T09:29:56.580Z,5.86
2023-01-31T09:32:23.129Z,5.85
2023-01-31T09:34:49.803Z,5.83
2023-01-31T09:37:16.632Z,5.79
2023-01-31T09:39:43.301Z,5.58
2023-01-31T09:42:19.881Z,5.83
2023-01-31T09:44:57.126Z,5.83
2023-01-31T09:47:29.946Z,5.86
2023-01-31T09:50:00.703Z,6.12
2023-01-31T09:52:28.538Z,5.97
2023-01-31T09:54:55.507Z,5.97
2023-01-31T09:57:31.104Z,5.96
2023-01-31T10:00:16.507Z,5.79
2023-01-31T10:03:00.899Z,5.86
2023-01-31T10:05:33.786Z,5.69
2023-01-31T10:08:09.173Z,5.61
2023-01-31T10:10:38.824Z,5.56
2023-01-31T10:13:29.692Z,5.40
2023-01-31T10:15:59.505Z,5.51
2023-01-31T10:18:48.203Z,5.64
2023-01-31T10:21:24.658Z,5.73
2023-01-31T10:23:55.977Z,5.84
2023-01-31T10:26:29.273Z,5.81
2023-01-31T10:29:01.479Z,5.80
2023-01-31T10:31:32.371Z,6.07
2023-01-31T10:34:19.185Z,6.21
2023-01-31T10:36:51.065Z,6.28
2023-01-31T10:39:26.386Z,6.45
2023-01-31T10:42:02.138Z,6.69
2023-01-31T10:44:31.772Z,6.67
2023-01-31T10:46:59.294Z,6.51
2023-01-31T10:49:27.136Z,6.55
2023-01-31T10:52:06.802Z,6.51
2023-01-31T10:54:50.217Z,6.61
2023-01-31T10:57:18.176Z,5.83
2023-01-31T10:59:47.569Z,5.60
2023-01-31T11:02:20.255Z,5.40
2023-01-31T11:04:46.891Z,5.35
2023-01-31T11:07:13.409Z,5.35
2023-01-31T11:09:41.639Z,5.23
2023-01-31T11:12:08.823Z,4.71
2023-01-31T11:14:36.794Z,4.77
2023-01-31T11:17:06.307Z,4.76
2023-01-31T11:19:39.765Z,4.85
2023-01-31T11:22:07.120Z,4.72
2023-01-31T11:24:37.483Z,4.61
2023-01-31T11:27:06.610Z,4.88
2023-01-31T11:29:36.041Z,4.98
2023-01-31T11:32:05.062Z,5.15
2023-01-31T11:34:31.770Z,5.00
2023-01-31T11:37:14.783Z,5.00
2023-01-31T11:39:41.592Z,5.19
2023-01-31T11:42:12.711Z,5.20
2023-01-31T11:44:53.994Z,5.21
2023-01-31T11:47:22.693Z,5.12
2023-01-31T11:49:50.632Z,5.23
2023-01-31T11:52:30.212Z,5.64
2023-01-31T11:54:58.922Z,5.64
2023-01-31T11:57:33.813Z,5.67
2023-01-31T12:00:02.377Z,5.83
2023-01-31T12:02:39.737Z,6.35
2023-01-31T12:05:11.512Z,6.34
2023-01-31T12:07:42.761Z,6.27
2023-01-31T12:10:35.434Z,6.50
2023-01-31T12:13:17.900Z,6.80
2023-01-31T12:15:46.528Z,6.65
2023-01-31T12:18:13.272Z,6.78
2023-01-31T12:20:47.660Z,6.69
2023-01-31T12:23:23.432Z,6.56
2023-01-31T12:25:49.935Z,6.61
2023-01-31T12:28:35.268Z,6.61
2023-01-31T12:31:25.106Z,6.37
2023-01-31T12:34:07.191Z,6.57
2023-01-31T12:36:33.772Z,6.49
2023-01-31T12:39:25.031Z,6.14
2023-01-31T12:42:30.407Z,5.83
2023-01-31T12:45:03.425Z,5.65
2023-01-31T12:47:52.945Z,5.51
2023-01-31T12:50:31.851Z,5.31
2023-01-31T12:53:16.709Z,5.37
2023-01-31T12:56:04.994Z,5.42
2023-01-31T12:59:09.750Z,5.23
2023-01-31T13:01:48.724Z,5.28
2023-01-31T13:04:15.377Z,5.35
2023-01-31T13:06:44.519Z,5.42
2023-01-31T13:09:20.408Z,5.47
2023-01-31T13:11:55.686Z,5.54
2023-01-31T13:14:24.608Z,5.35
2023-01-31T13:16:52.538Z,5.66
2023-01-31T13:19:26.572Z,5.59
2023-01-31T13:21:56.352Z,5.63
2023-01-31T13:24:27.286Z,5.72
2023-01-31T13:26:56.826Z,5.90
2023-01-31T13:29:23.339Z,5.90
2023-01-31T13:32:11.277Z,5.96
2023-01-31T13:34:41.040Z,6.15
2023-01-31T13:37:10.369Z,6.38
2023-01-31T13:39:40.758Z,6.41
2023-01-31T13:42:07.368Z,6.33
2023-01-31T13:44:34.014Z,6.54
2023-01-31T13:47:06.486Z,6.43
2023-01-31T13:49:36.824Z,6.35
2023-01-31T13:52:06.324Z,6.37
2023-01-31T13:54:34.928Z,6.18
2023-01-31T13:57:02.348Z,6.14
2023-01-31T13:59:31.335Z,6.16
2023-01-31T14:02:00.233Z,6.13
2023-01-31T14:04:31.174Z,5.82
2023-01-31T14:07:13.651Z,5.68
2023-01-31T14:09:46.364Z,5.83
2023-01-31T14:12:17.134Z,5.80
2023-01-31T14:14:54.141Z,5.71
2023-01-31T14:17:23.726Z,5.72
2023-01-31T14:19:50.218Z,5.56
2023-01-31T14:22:18.039Z,5.34
2023-01-31T14:24:47.710Z,5.43
2023-01-31T14:27:18.761Z,5.51
2023-01-31T14:29:46.935Z,5.55
2023-01-31T14:32:15.572Z,5.69
2023-01-31T14:34:47.765Z,5.54
2023-01-31T14:37:21.005Z,5.41
2023-01-31T14:40:12.133Z,5.57
2023-01-31T14:43:11.294Z,5.83
2023-01-31T14:45:37.859Z,5.68
2023-01-31T14:48:24.743Z,5.93
2023-01-31T14:51:13.063Z,5.89
2023-01-31T14:53:51.960Z,5.95
2023-01-31T14:56:21.594Z,5.76
2023-01-31T14:58:48.255Z,5.70
2023-01-31T15:01:19.091Z,5.84
2023-01-31T15:03:50.434Z,5.76
2023-01-31T15:06:28.333Z,5.74
2023-01-31T15:09:21.624Z,5.70
2023-01-31T15:11:49.278Z,5.66
2023-01-31T15:14:34.220Z,5.68
2023-01-31T15:17:01.994Z,5.74
2023-01-31T15:19:32.060Z,5.67
2023-01-31T15:22:08.328Z,5.68
2023-01-31T15:24:34.900Z,5.93
2023-01-31T15:27:02.776Z,5.89
2023-01-31T15:29:33.941Z,5.78
2023-01-31T15:32:09.012Z,5.68
2023-01-31T15:34:40.532Z,5.76
2023-01-31T15:37:09.228Z,5.70
2023-01-31T15:39:42.116Z,5.76
2023-01-31T15:42:20.857Z,5.80
2023-01-31T15:44:47.414Z,5.68
2023-01-31T15:47:21.938Z,5.73
2023-01-31T15:49:48.666Z,5.70
2023-01-31T15:52:22.373Z,5.76
2023-01-31T15:54:59.738Z,5.74
2023-01-31T15:57:28.911Z,5.73
2023-01-31T15:59:56.615Z,5.85
2023-01-31T16:02:28.277Z,5.85
2023-01-31T16:04:55.222Z,5.66
2023-01-31T16:07:28.491Z,5.69
2023-01-31T16:09:57.239Z,5.80
2023-01-31T16:12:24.024Z,5.69
2023-01-31T16:14:51.331Z,5.70
2023-01-31T16:17:18.968Z,5.67
2023-01-31T16:19:49.377Z,5.66
2023-01-31T16:22:26.409Z,5.48
2023-01-31T16:24:54.293Z,5.54
2023-01-31T16:27:21.027Z,5.48
2023-01-31T16:29:52.646Z,5.48
2023-01-31T16:32:24.132Z,5.43
2023-01-31T16:35:02.728Z,5.47
2023-01-31T16:37:35.578Z,5.42
2023-01-31T16:40:04.671Z,5.40
2023-01-31T16:42:33.314Z,5.50
2023-01-31T16:44:59.821Z,5.34
2023-01-31T16:47:32.802Z,5.31
2023-01-31T16:50:17.489Z,5.25
2023-01-31T16:52:48.864Z,5.29
2023-01-31T16:55:16.810Z,5.29
2023-01-31T16:57:43.780Z,5.37
2023-01-31T17:00:25.683Z,5.29
2023-01-31T17:02:53.161Z,5.46
2023-01-31T17:05:20.060Z,5.31
2023-01-31T17:07:48.962Z,5.31
2023-01-31T17:10:23.344Z,5.24
2023-01-31T17:12:50.476Z,5.25
2023-01-31T17:15:18.999Z,5.10
2023-01-31T17:17:47.090Z,5.04
2023-01-31T17:20:14.353Z,5.02
2023-01-31T17:22:42.259Z,5.00
2023-01-31T17:25:19.711Z,5.01
2023-01-31T17:27:46.872Z,4.84
2023-01-31T17:30:15.879Z,4.88
2023-01-31T17:32:42.624Z,4.85
2023-01-31T17:35:20.466Z,4.83
2023-01-31T17:37:47.264Z,4.74
2023-01-31T17:40:13.860Z,4.82
2023-01-31T17:42:40.632Z,4.77
2023-01-31T17:45:11.151Z,4.72
2023-01-31T17:47:37.665Z,4.65
2023-01-31T17:50:05.093Z,4.66
2023-01-31T17:52:31.677Z,4.63
2023-01-31T17:54:58.244Z,4.77
2023-01-31T17:57:24.767Z,4.66
2023-01-31T17:59:52.362Z,4.82
2023-01-31T18:02:18.900Z,4.69
2023-01-31T18:04:45.679Z,4.65
2023-01-31T18:07:14.943Z,4.84
2023-01-31T18:09:41.482Z,4.86
2023-01-31T18:12:08.105Z,4.92
2023-01-31T18:14:34.798Z,4.85
2023-01-31T18:17:01.298Z,4.87
2023-01-31T18:19:28.494Z,4.93
2023-01-31T18:21:55.738Z,4.98
2023-01-31T18:24:22.561Z,4.94
2023-01-31T18:26:49.404Z,5.01
2023-01-31T18:29:19.960Z,5.06
2023-01-31T18:31:49.862Z,5.04
2023-01-31T18:34:17.022Z,5.09
2023-01-31T18:36:44.255Z,5.07
2023-01-31T18:39:10.965Z,5.19
2023-01-31T18:41:37.535Z,5.13
2023-01-31T18:44:04.839Z,5.04
2023-01-31T18:46:31.514Z,5.08
2023-01-31T18:48:58.263Z,5.02
2023-01-31T18:51:24.845Z,5.07
2023-01-31T18:53:51.358Z,5.11
2023-01-31T18:56:19.515Z,5.02
2023-01-31T18:58:46.805Z,4.97
2023-01-31T19:01:14.608Z,5.02
2023-01-31T19:03:41.726Z,5.06
2023-01-31T19:06:13.384Z,5.12
2023-01-31T19:08:40.025Z,5.10
2023-01-31T19:11:10.969Z,5.07
2023-01-31T19:13:38.236Z,5.11
2023-01-31T19:16:25.101Z,5.10
2023-01-31T19:18:51.958Z,5.14
2023-01-31T19:21:18.477Z,5.10
2023-01-31T19:23:45.341Z,5.11
2023-01-31T19:26:12.499Z,5.16
2023-01-31T19:28:39.601Z,5.07
2023-01-31T19:31:10.220Z,5.06
2023-01-31T19:33:37.110Z,5.14
2023-01-31T19:36:10.444Z,5.13
2023-01-31T19:38:37.068Z,5.08
2023-01-31T19:41:04.423Z,5.05
2023-01-31T19:43:30.925Z,5.02
2023-01-31T19:45:57.494Z,5.04
2023-01-31T19:48:24.102Z,5.04
2023-01-31T19:50:50.711Z,5.09
2023-01-31T19:53:17.300Z,4.94
2023-01-31T19:55:43.851Z,5.00
2023-01-31T19:58:10.360Z,5.02
2023-01-31T20:00:36.884Z,4.84
2023-01-31T20:03:03.465Z,5.08
2023-01-31T20:05:30.002Z,4.98
2023-01-31T20:07:56.661Z,4.97
2023-01-31T20:10:23.788Z,4.95
2023-01-31T20:12:50.525Z,5.08
2023-01-31T20:15:17.128Z,5.12
2023-01-31T20:17:43.683Z,5.10
2023-01-31T20:20:10.707Z,5.10
2023-01-31T20:22:37.585Z,5.08
2023-01-31T20:25:05.044Z,4.88
2023-01-31T20:27:33.873Z,4.97
2023-01-31T20:30:00.435Z,4.97
2023-01-31T20:32:27.061Z,5.00
2023-01-31T20:34:53.574Z,5.00
2023-01-31T20:37:20.128Z,4.93
2023-01-31T20:39:46.706Z,4.94
2023-01-31T20:42:13.286Z,4.89
2023-01-31T20:44:40.345Z,4.81
2023-01-31T20:47:06.954Z,4.86
2023-01-31T20:49:33.499Z,4.79
2023-01-31T20:52:00.114Z,4.77
2023-01-31T20:54:31.167Z,4.72
2023-01-31T20:56:58.162Z,4.82
2023-01-31T20:59:24.914Z,4.83
2023-01-31T21:01:51.728Z,4.77
2023-01-31T21:04:18.518Z,4.86
2023-01-31T21:06:45.366Z,4.86
2023-01-31T21:09:11.946Z,4.75
2023-01-31T21:11:38.525Z,4.75
2023-01-31T21:14:05.099Z,4.68
2023-01-31T21:16:31.707Z,4.72
2023-01-31T21:18:58.279Z,4.72
2023-01-31T21:21:25.408Z,4.71
2023-01-31T21:23:52.821Z,4.74
2023-01-31T21:26:19.964Z,4.76
2023-01-31T21:28:46.532Z,4.56
2023-01-31T21:31:17.401Z,4.55
2023-01-31T21:33:48.167Z,4.57
2023-01-31T21:36:16.543Z,4.66
2023-01-31T21:38:44.601Z,4.54
2023-01-31T21:41:30.405Z,4.56
2023-01-31T21:43:57.402Z,4.52
2023-01-31T21:46:24.546Z,4.58
2023-01-31T21:48:51.572Z,4.66
2023-01-31T21:51:19.844Z,4.72
2023-01-31T21:53:46.578Z,4.85
2023-01-31T21:56:13.077Z,4.82
2023-01-31T21:58:40.537Z,5.02
2023-01-31T22:01:07.090Z,5.05
2023-01-31T22:03:37.308Z,5.05
2023-01-31T22:06:04.980Z,5.16
2023-01-31T22:08:31.619Z,5.26
2023-01-31T22:10:59.366Z,5.26
2023-01-31T22:13:26.183Z,5.34
2023-01-31T22:15:52.720Z,5.29
2023-01-31T22:18:19.231Z,5.42
2023-01-31T22:20:45.834Z,5.28
2023-01-31T22:23:12.397Z,5.34
2023-01-31T22:25:38.895Z,5.29
2023-01-31T22:28:05.478Z,5.39
2023-01-31T22:30:32.325Z,5.30
2023-01-31T22:32:59.015Z,5.14
2023-01-31T22:35:26.685Z,5.13
2023-01-31T22:37:53.236Z,5.13
2023-01-31T22:40:20.046Z,5.13
2023-01-31T22:42:46.779Z,5.17
2023-01-31T22:45:13.292Z,5.27
2023-01-31T22:47:39.896Z,5.22
2023-01-31T22:50:06.583Z,5.30
2023-01-31T22:52:33.279Z,5.31
2023-01-31T22:54:59.796Z,5.35
2023-01-31T22:57:27.665Z,5.43
2023-01-31T22:59:54.177Z,5.48
2023-01-31T23:02:20.734Z,5.39
2023-01-31T23:04:47.256Z,5.35
2023-01-31T23:07:13.811Z,5.51
2023-01-31T23:09:40.336Z,5.56
2023-01-31T23:12:06.953Z,5.51
2023-01-31T23:14:33.464Z,5.56
2023-01-31T23:17:18.629Z,5.65
2023-01-31T23:19:45.192Z,5.57
2023-01-31T23:22:13.927Z,5.39
2023-01-31T23:24:40.514Z,5.42
2023-01-31T23:27:07.732Z,5.36
2023-01-31T23:29:34.421Z,5.28
2023-01-31T23:32:00.995Z,5.18
2023-01-31T23:34:27.550Z,5.07
2023-01-31T23:36:54.170Z,5.22
2023-01-31T23:39:20.773Z,5.15
2023-01-31T23:41:47.356Z,5.23
2023-01-31T23:44:13.899Z,5.23
2023-01-31T23:46:40.517Z,5.28
2023-01-31T23:49:07.101Z,5.32
2023-01-31T23:51:33.924Z,5.39
2023-01-31T23:54:00.505Z,5.46
2023-01-31T23:56:27.151Z,5.35
2023-01-31T23:58:53.760Z,5.28
